sensor_id;sensor_type;location;lat;lon;timestamp;P1;durP1;ratioP1;P2;durP2;ratioP2
56670;SDS011;42545;50.054;8.306;2023-08-21T00:02:23;0.60;;;0.60;;
56670;SDS011;42545;50.054;8.306;2023-08-21T00:04:52;0.50;;;0.50;;
56670;SDS011;42545;50.054;8.306;2023-08-21T00:07:19;0.50;;;0.50;;
56670;SDS011;42545;50.054;8.306;2023-08-21T00:09:46;0.55;;;0.55;;
56670;SDS011;42545;50.054;8.306;2023-08-21T00:12:13;0.50;;;0.50;;
56670;SDS011;42545;50.054;8.306;2023-08-21T00:14:39;0.50;;;0.50;;
56670;SDS011;42545;50.054;8.306;2023-08-21T00:17:06;0.50;;;0.50;;
56670;SDS011;42545;50.054;8.306;2023-08-21T00:19:34;0.35;;;0.35;;
56670;SDS011;42545;50.054;8.306;2023-08-21T00:22:01;0.40;;;0.40;;
56670;SDS011;42545;50.054;8.306;2023-08-21T00:24:27;0.50;;;0.50;;
56670;SDS011;42545;50.054;8.306;2023-08-21T00:26:54;0.38;;;0.38;;
56670;SDS011;42545;50.054;8.306;2023-08-21T00:29:20;0.50;;;0.50;;
56670;SDS011;42545;50.054;8.306;2023-08-21T00:31:47;0.38;;;0.38;;
56670;SDS011;42545;50.054;8.306;2023-08-21T00:34:14;0.40;;;0.40;;
56670;SDS011;42545;50.054;8.306;2023-08-21T00:36:42;0.43;;;0.43;;
56670;SDS011;42545;50.054;8.306;2023-08-21T00:39:09;0.40;;;0.40;;
56670;SDS011;42545;50.054;8.306;2023-08-21T00:41:35;0.40;;;0.40;;
56670;SDS011;42545;50.054;8.306;2023-08-21T00:44:02;0.40;;;0.40;;
56670;SDS011;42545;50.054;8.306;2023-08-21T00:46:30;0.32;;;0.32;;
56670;SDS011;42545;50.054;8.306;2023-08-21T00:48:57;0.50;;;0.50;;
56670;SDS011;42545;50.054;8.306;2023-08-21T00:51:23;0.40;;;0.40;;
56670;SDS011;42545;50.054;8.306;2023-08-21T00:53:52;0.40;;;0.40;;
56670;SDS011;42545;50.054;8.306;2023-08-21T00:56:19;0.40;;;0.40;;
56670;SDS011;42545;50.054;8.306;2023-08-21T00:58:46;0.32;;;0.32;;
56670;SDS011;42545;50.054;8.306;2023-08-21T01:01:13;0.30;;;0.30;;
56670;SDS011;42545;50.054;8.306;2023-08-21T01:03:44;0.40;;;0.40;;
56670;SDS011;42545;50.054;8.306;2023-08-21T01:06:11;0.30;;;0.30;;
56670;SDS011;42545;50.054;8.306;2023-08-21T01:08:40;0.40;;;0.40;;
56670;SDS011;42545;50.054;8.306;2023-08-21T01:11:14;0.40;;;0.40;;
56670;SDS011;42545;50.054;8.306;2023-08-21T01:13:48;0.40;;;0.40;;
56670;SDS011;42545;50.054;8.306;2023-08-21T01:16:21;0.40;;;0.40;;
56670;SDS011;42545;50.054;8.306;2023-08-21T01:18:50;0.45;;;0.45;;
56670;SDS011;42545;50.054;8.306;2023-08-21T01:21:19;0.45;;;0.45;;
56670;SDS011;42545;50.054;8.306;2023-08-21T01:23:47;0.50;;;0.50;;
56670;SDS011;42545;50.054;8.306;2023-08-21T01:26:14;0.47;;;0.47;;
56670;SDS011;42545;50.054;8.306;2023-08-21T01:28:41;0.50;;;0.50;;
56670;SDS011;42545;50.054;8.306;2023-08-21T01:31:08;0.40;;;0.40;;
56670;SDS011;42545;50.054;8.306;2023-08-21T01:33:40;0.60;;;0.60;;
56670;SDS011;42545;50.054;8.306;2023-08-21T01:36:11;0.50;;;0.50;;
56670;SDS011;42545;50.054;8.306;2023-08-21T01:38:38;0.45;;;0.45;;
56670;SDS011;42545;50.054;8.306;2023-08-21T01:41:06;0.60;;;0.60;;
56670;SDS011;42545;50.054;8.306;2023-08-21T01:43:33;0.50;;;0.50;;
56670;SDS011;42545;50.054;8.306;2023-08-21T01:46:00;0.45;;;0.45;;
56670;SDS011;42545;50.054;8.306;2023-08-21T01:48:27;0.50;;;0.50;;
56670;SDS011;42545;50.054;8.306;2023-08-21T01:50:54;0.43;;;0.43;;
56670;SDS011;42545;50.054;8.306;2023-08-21T01:53:21;0.43;;;0.43;;
56670;SDS011;42545;50.054;8.306;2023-08-21T01:55:47;0.50;;;0.50;;
56670;SDS011;42545;50.054;8.306;2023-08-21T01:58:15;0.30;;;0.30;;
56670;SDS011;42545;50.054;8.306;2023-08-21T02:00:45;0.40;;;0.40;;
56670;SDS011;42545;50.054;8.306;2023-08-21T02:03:11;0.52;;;0.52;;
56670;SDS011;42545;50.054;8.306;2023-08-21T02:05:38;0.20;;;0.20;;
56670;SDS011;42545;50.054;8.306;2023-08-21T02:08:05;0.40;;;0.40;;
56670;SDS011;42545;50.054;8.306;2023-08-21T02:10:32;0.40;;;0.40;;
56670;SDS011;42545;50.054;8.306;2023-08-21T02:12:59;0.40;;;0.40;;
56670;SDS011;42545;50.054;8.306;2023-08-21T02:15:27;0.43;;;0.43;;
56670;SDS011;42545;50.054;8.306;2023-08-21T02:17:54;0.40;;;0.40;;
56670;SDS011;42545;50.054;8.306;2023-08-21T02:20:21;0.60;;;0.60;;
56670;SDS011;42545;50.054;8.306;2023-08-21T02:22:48;0.50;;;0.50;;
56670;SDS011;42545;50.054;8.306;2023-08-21T02:25:14;0.45;;;0.45;;
56670;SDS011;42545;50.054;8.306;2023-08-21T02:27:41;0.55;;;0.55;;
56670;SDS011;42545;50.054;8.306;2023-08-21T02:30:08;0.50;;;0.50;;
56670;SDS011;42545;50.054;8.306;2023-08-21T02:32:37;0.40;;;0.40;;
56670;SDS011;42545;50.054;8.306;2023-08-21T02:35:05;0.40;;;0.40;;
56670;SDS011;42545;50.054;8.306;2023-08-21T02:37:32;0.30;;;0.30;;
56670;SDS011;42545;50.054;8.306;2023-08-21T02:39:59;0.40;;;0.40;;
56670;SDS011;42545;50.054;8.306;2023-08-21T02:42:26;0.50;;;0.50;;
56670;SDS011;42545;50.054;8.306;2023-08-21T02:44:52;0.50;;;0.50;;
56670;SDS011;42545;50.054;8.306;2023-08-21T02:47:19;0.60;;;0.60;;
56670;SDS011;42545;50.054;8.306;2023-08-21T02:49:47;0.65;;;0.65;;
56670;SDS011;42545;50.054;8.306;2023-08-21T02:52:14;0.60;;;0.60;;
56670;SDS011;42545;50.054;8.306;2023-08-21T02:54:41;0.43;;;0.43;;
56670;SDS011;42545;50.054;8.306;2023-08-21T02:57:08;0.50;;;0.50;;
56670;SDS011;42545;50.054;8.306;2023-08-21T02:59:34;0.40;;;0.40;;
56670;SDS011;42545;50.054;8.306;2023-08-21T03:02:01;0.45;;;0.45;;
56670;SDS011;42545;50.054;8.306;2023-08-21T03:04:27;0.50;;;0.50;;
56670;SDS011;42545;50.054;8.306;2023-08-21T03:06:56;0.50;;;0.50;;
56670;SDS011;42545;50.054;8.306;2023-08-21T03:09:22;0.47;;;0.47;;
56670;SDS011;42545;50.054;8.306;2023-08-21T03:11:49;0.43;;;0.43;;
56670;SDS011;42545;50.054;8.306;2023-08-21T03:14:16;0.45;;;0.45;;
56670;SDS011;42545;50.054;8.306;2023-08-21T03:16:42;0.63;;;0.63;;
56670;SDS011;42545;50.054;8.306;2023-08-21T03:19:09;0.52;;;0.52;;
56670;SDS011;42545;50.054;8.306;2023-08-21T03:21:35;0.60;;;0.60;;
56670;SDS011;42545;50.054;8.306;2023-08-21T03:24:05;0.60;;;0.60;;
56670;SDS011;42545;50.054;8.306;2023-08-21T03:28:59;0.63;;;0.63;;
56670;SDS011;42545;50.054;8.306;2023-08-21T03:31:25;0.50;;;0.50;;
56670;SDS011;42545;50.054;8.306;2023-08-21T03:33:52;0.50;;;0.50;;
56670;SDS011;42545;50.054;8.306;2023-08-21T03:36:19;0.50;;;0.50;;
56670;SDS011;42545;50.054;8.306;2023-08-21T03:38:46;0.50;;;0.50;;
56670;SDS011;42545;50.054;8.306;2023-08-21T03:41:14;0.68;;;0.68;;
56670;SDS011;42545;50.054;8.306;2023-08-21T03:43:41;0.52;;;0.52;;
56670;SDS011;42545;50.054;8.306;2023-08-21T03:46:08;0.60;;;0.60;;
56670;SDS011;42545;50.054;8.306;2023-08-21T03:48:34;0.50;;;0.50;;
56670;SDS011;42545;50.054;8.306;2023-08-21T03:51:01;0.60;;;0.60;;
56670;SDS011;42545;50.054;8.306;2023-08-21T03:53:28;0.90;;;0.90;;
56670;SDS011;42545;50.054;8.306;2023-08-21T03:55:54;1.30;;;1.20;;
56670;SDS011;42545;50.054;8.306;2023-08-21T03:58:22;1.20;;;1.10;;
56670;SDS011;42545;50.054;8.306;2023-08-21T04:00:50;1.57;;;1.40;;
56670;SDS011;42545;50.054;8.306;2023-08-21T04:03:16;1.95;;;1.75;;
56670;SDS011;42545;50.054;8.306;2023-08-21T04:05:43;1.98;;;1.77;;
56670;SDS011;42545;50.054;8.306;2023-08-21T04:08:10;2.00;;;1.80;;
56670;SDS011;42545;50.054;8.306;2023-08-21T04:10:36;1.73;;;1.63;;
56670;SDS011;42545;50.054;8.306;2023-08-21T04:13:03;1.83;;;1.63;;
56670;SDS011;42545;50.054;8.306;2023-08-21T04:15:33;2.28;;;2.08;;
56670;SDS011;42545;50.054;8.306;2023-08-21T04:18:00;2.22;;;2.00;;
56670;SDS011;42545;50.054;8.306;2023-08-21T04:20:26;2.05;;;1.80;;
56670;SDS011;42545;50.054;8.306;2023-08-21T04:22:53;2.17;;;1.98;;
56670;SDS011;42545;50.054;8.306;2023-08-21T04:25:20;2.10;;;1.90;;
56670;SDS011;42545;50.054;8.306;2023-08-21T04:27:46;1.80;;;1.70;;
56670;SDS011;42545;50.054;8.306;2023-08-21T04:30:13;1.95;;;1.77;;
56670;SDS011;42545;50.054;8.306;2023-08-21T04:32:42;1.60;;;1.50;;
56670;SDS011;42545;50.054;8.306;2023-08-21T04:35:08;2.10;;;1.88;;
56670;SDS011;42545;50.054;8.306;2023-08-21T04:37:37;1.73;;;1.63;;
56670;SDS011;42545;50.054;8.306;2023-08-21T04:40:09;2.15;;;1.85;;
56670;SDS011;42545;50.054;8.306;2023-08-21T04:42:37;1.60;;;1.50;;
56670;SDS011;42545;50.054;8.306;2023-08-21T04:45:04;1.50;;;1.33;;
56670;SDS011;42545;50.054;8.306;2023-08-21T04:47:31;1.55;;;1.45;;
56670;SDS011;42545;50.054;8.306;2023-08-21T04:50:00;1.60;;;1.50;;
56670;SDS011;42545;50.054;8.306;2023-08-21T04:52:26;1.70;;;1.60;;
56670;SDS011;42545;50.054;8.306;2023-08-21T04:54:53;1.33;;;1.20;;
56670;SDS011;42545;50.054;8.306;2023-08-21T04:57:20;1.27;;;1.17;;
56670;SDS011;42545;50.054;8.306;2023-08-21T04:59:47;1.20;;;1.10;;
56670;SDS011;42545;50.054;8.306;2023-08-21T05:02:14;1.20;;;1.10;;
56670;SDS011;42545;50.054;8.306;2023-08-21T05:04:41;1.20;;;1.10;;
56670;SDS011;42545;50.054;8.306;2023-08-21T05:07:09;1.30;;;1.20;;
56670;SDS011;42545;50.054;8.306;2023-08-21T05:09:36;1.30;;;1.20;;
56670;SDS011;42545;50.054;8.306;2023-08-21T05:12:03;1.77;;;1.67;;
56670;SDS011;42545;50.054;8.306;2023-08-21T05:14:31;1.35;;;1.25;;
56670;SDS011;42545;50.054;8.306;2023-08-21T05:16:58;1.50;;;1.40;;
56670;SDS011;42545;50.054;8.306;2023-08-21T05:19:25;1.50;;;1.40;;
56670;SDS011;42545;50.054;8.306;2023-08-21T05:21:51;1.70;;;1.60;;
56670;SDS011;42545;50.054;8.306;2023-08-21T05:24:19;1.60;;;1.50;;
56670;SDS011;42545;50.054;8.306;2023-08-21T05:26:46;2.28;;;2.08;;
56670;SDS011;42545;50.054;8.306;2023-08-21T05:29:12;2.35;;;2.10;;
56670;SDS011;42545;50.054;8.306;2023-08-21T05:31:39;3.22;;;2.72;;
56670;SDS011;42545;50.054;8.306;2023-08-21T05:34:06;2.88;;;2.58;;
56670;SDS011;42545;50.054;8.306;2023-08-21T05:36:33;3.42;;;3.13;;
56670;SDS011;42545;50.054;8.306;2023-08-21T05:39:01;3.45;;;3.13;;
56670;SDS011;42545;50.054;8.306;2023-08-21T05:41:32;3.25;;;2.95;;
56670;SDS011;42545;50.054;8.306;2023-08-21T05:43:59;2.75;;;2.53;;
56670;SDS011;42545;50.054;8.306;2023-08-21T05:46:25;2.70;;;2.50;;
56670;SDS011;42545;50.054;8.306;2023-08-21T05:48:52;2.58;;;2.38;;
56670;SDS011;42545;50.054;8.306;2023-08-21T05:51:18;3.05;;;2.60;;
56670;SDS011;42545;50.054;8.306;2023-08-21T05:53:45;2.60;;;2.25;;
56670;SDS011;42545;50.054;8.306;2023-08-21T05:56:11;2.30;;;2.10;;
56670;SDS011;42545;50.054;8.306;2023-08-21T05:58:40;2.55;;;2.35;;
56670;SDS011;42545;50.054;8.306;2023-08-21T06:01:06;2.40;;;2.00;;
56670;SDS011;42545;50.054;8.306;2023-08-21T06:03:33;2.88;;;2.42;;
56670;SDS011;42545;50.054;8.306;2023-08-21T06:06:00;3.00;;;2.72;;
56670;SDS011;42545;50.054;8.306;2023-08-21T06:08:27;3.72;;;3.33;;
56670;SDS011;42545;50.054;8.306;2023-08-21T06:10:54;2.95;;;2.65;;
56670;SDS011;42545;50.054;8.306;2023-08-21T06:13:21;3.53;;;2.70;;
56670;SDS011;42545;50.054;8.306;2023-08-21T06:15:50;3.15;;;2.85;;
56670;SDS011;42545;50.054;8.306;2023-08-21T06:18:16;2.33;;;2.13;;
56670;SDS011;42545;50.054;8.306;2023-08-21T06:20:43;3.60;;;3.30;;
56670;SDS011;42545;50.054;8.306;2023-08-21T06:23:10;2.80;;;2.50;;
56670;SDS011;42545;50.054;8.306;2023-08-21T06:25:38;2.75;;;2.55;;
56670;SDS011;42545;50.054;8.306;2023-08-21T06:28:05;2.63;;;2.42;;
56670;SDS011;42545;50.054;8.306;2023-08-21T06:30:31;2.80;;;2.60;;
56670;SDS011;42545;50.054;8.306;2023-08-21T06:33:00;2.38;;;2.17;;
56670;SDS011;42545;50.054;8.306;2023-08-21T06:35:26;2.60;;;2.40;;
56670;SDS011;42545;50.054;8.306;2023-08-21T06:37:53;2.63;;;2.42;;
56670;SDS011;42545;50.054;8.306;2023-08-21T06:40:20;2.50;;;2.30;;
56670;SDS011;42545;50.054;8.306;2023-08-21T06:42:47;2.83;;;2.53;;
56670;SDS011;42545;50.054;8.306;2023-08-21T06:45:15;2.50;;;2.30;;
56670;SDS011;42545;50.054;8.306;2023-08-21T06:47:42;2.42;;;2.22;;
56670;SDS011;42545;50.054;8.306;2023-08-21T06:50:11;2.47;;;2.28;;
56670;SDS011;42545;50.054;8.306;2023-08-21T06:52:38;2.53;;;2.33;;
56670;SDS011;42545;50.054;8.306;2023-08-21T06:55:06;2.20;;;2.00;;
56670;SDS011;42545;50.054;8.306;2023-08-21T06:57:33;2.60;;;2.40;;
56670;SDS011;42545;50.054;8.306;2023-08-21T06:59:59;2.42;;;2.22;;
56670;SDS011;42545;50.054;8.306;2023-08-21T07:02:28;2.42;;;2.22;;
56670;SDS011;42545;50.054;8.306;2023-08-21T07:04:54;2.65;;;2.40;;
56670;SDS011;42545;50.054;8.306;2023-08-21T07:07:23;2.53;;;2.33;;
56670;SDS011;42545;50.054;8.306;2023-08-21T07:09:50;2.60;;;2.40;;
56670;SDS011;42545;50.054;8.306;2023-08-21T07:12:16;2.60;;;2.40;;
56670;SDS011;42545;50.054;8.306;2023-08-21T07:14:43;2.33;;;2.13;;
56670;SDS011;42545;50.054;8.306;2023-08-21T07:17:09;2.55;;;2.30;;
56670;SDS011;42545;50.054;8.306;2023-08-21T07:19:36;2.30;;;2.10;;
56670;SDS011;42545;50.054;8.306;2023-08-21T07:22:03;2.35;;;2.15;;
56670;SDS011;42545;50.054;8.306;2023-08-21T07:24:31;2.38;;;2.17;;
56670;SDS011;42545;50.054;8.306;2023-08-21T07:26:58;2.40;;;2.20;;
56670;SDS011;42545;50.054;8.306;2023-08-21T07:29:24;2.63;;;2.42;;
56670;SDS011;42545;50.054;8.306;2023-08-21T07:31:51;3.92;;;2.90;;
56670;SDS011;42545;50.054;8.306;2023-08-21T07:34:18;3.00;;;2.70;;
56670;SDS011;42545;50.054;8.306;2023-08-21T07:36:44;5.25;;;4.20;;
56670;SDS011;42545;50.054;8.306;2023-08-21T07:39:11;4.63;;;3.65;;
56670;SDS011;42545;50.054;8.306;2023-08-21T07:41:39;5.32;;;3.88;;
56670;SDS011;42545;50.054;8.306;2023-08-21T07:44:06;3.92;;;3.50;;
56670;SDS011;42545;50.054;8.306;2023-08-21T07:46:33;4.15;;;3.60;;
56670;SDS011;42545;50.054;8.306;2023-08-21T07:49:00;5.18;;;4.68;;
56670;SDS011;42545;50.054;8.306;2023-08-21T07:51:26;4.25;;;3.85;;
56670;SDS011;42545;50.054;8.306;2023-08-21T07:53:53;3.70;;;3.40;;
56670;SDS011;42545;50.054;8.306;2023-08-21T07:56:20;3.58;;;3.28;;
56670;SDS011;42545;50.054;8.306;2023-08-21T07:58:48;6.03;;;4.20;;
56670;SDS011;42545;50.054;8.306;2023-08-21T08:01:15;4.07;;;3.67;;
56670;SDS011;42545;50.054;8.306;2023-08-21T08:03:42;4.28;;;3.80;;
56670;SDS011;42545;50.054;8.306;2023-08-21T08:06:08;4.00;;;3.63;;
56670;SDS011;42545;50.054;8.306;2023-08-21T08:08:35;4.32;;;3.92;;
56670;SDS011;42545;50.054;8.306;2023-08-21T08:11:03;3.60;;;3.30;;
56670;SDS011;42545;50.054;8.306;2023-08-21T08:13:30;4.57;;;3.78;;
56670;SDS011;42545;50.054;8.306;2023-08-21T08:15:59;3.72;;;3.42;;
56670;SDS011;42545;50.054;8.306;2023-08-21T08:18:26;3.80;;;3.50;;
56670;SDS011;42545;50.054;8.306;2023-08-21T08:20:53;5.50;;;4.97;;
56670;SDS011;42545;50.054;8.306;2023-08-21T08:23:19;4.25;;;3.85;;
56670;SDS011;42545;50.054;8.306;2023-08-21T08:25:48;4.25;;;3.85;;
56670;SDS011;42545;50.054;8.306;2023-08-21T08:28:15;4.32;;;3.92;;
56670;SDS011;42545;50.054;8.306;2023-08-21T08:30:42;3.55;;;3.25;;
56670;SDS011;42545;50.054;8.306;2023-08-21T08:33:12;7.07;;;6.10;;
56670;SDS011;42545;50.054;8.306;2023-08-21T08:35:38;7.38;;;5.95;;
56670;SDS011;42545;50.054;8.306;2023-08-21T08:38:06;5.65;;;5.15;;
56670;SDS011;42545;50.054;8.306;2023-08-21T08:40:33;5.07;;;4.35;;
56670;SDS011;42545;50.054;8.306;2023-08-21T08:43:03;7.53;;;5.65;;
56670;SDS011;42545;50.054;8.306;2023-08-21T08:45:30;4.40;;;4.00;;
56670;SDS011;42545;50.054;8.306;2023-08-21T08:47:59;4.90;;;4.40;;
56670;SDS011;42545;50.054;8.306;2023-08-21T08:50:29;4.90;;;4.40;;
56670;SDS011;42545;50.054;8.306;2023-08-21T08:52:58;4.50;;;4.10;;
56670;SDS011;42545;50.054;8.306;2023-08-21T08:55:25;5.72;;;5.15;;
56670;SDS011;42545;50.054;8.306;2023-08-21T08:57:52;7.30;;;5.88;;
56670;SDS011;42545;50.054;8.306;2023-08-21T09:00:20;6.18;;;5.40;;
56670;SDS011;42545;50.054;8.306;2023-08-21T09:02:47;5.18;;;4.68;;
56670;SDS011;42545;50.054;8.306;2023-08-21T09:05:14;6.05;;;5.28;;
56670;SDS011;42545;50.054;8.306;2023-08-21T09:07:43;7.88;;;5.80;;
56670;SDS011;42545;50.054;8.306;2023-08-21T09:10:12;5.30;;;4.80;;
56670;SDS011;42545;50.054;8.306;2023-08-21T09:12:39;5.40;;;4.90;;
56670;SDS011;42545;50.054;8.306;2023-08-21T09:15:06;6.50;;;5.25;;
56670;SDS011;42545;50.054;8.306;2023-08-21T09:17:34;7.60;;;5.70;;
56670;SDS011;42545;50.054;8.306;2023-08-21T09:20:03;5.93;;;5.03;;
56670;SDS011;42545;50.054;8.306;2023-08-21T09:22:30;5.90;;;5.25;;
56670;SDS011;42545;50.054;8.306;2023-08-21T09:25:02;5.07;;;4.57;;
56670;SDS011;42545;50.054;8.306;2023-08-21T09:27:31;4.72;;;4.32;;
56670;SDS011;42545;50.054;8.306;2023-08-21T09:29:58;5.15;;;4.65;;
56670;SDS011;42545;50.054;8.306;2023-08-21T09:32:25;5.15;;;4.10;;
56670;SDS011;42545;50.054;8.306;2023-08-21T09:34:52;4.35;;;3.95;;
56670;SDS011;42545;50.054;8.306;2023-08-21T09:40:57;4.15;;;3.75;;
56670;SDS011;42545;50.054;8.306;2023-08-21T09:43:24;3.70;;;3.40;;
56670;SDS011;42545;50.054;8.306;2023-08-21T09:45:52;3.85;;;3.55;;
56670;SDS011;42545;50.054;8.306;2023-08-21T09:48:21;4.32;;;3.60;;
56670;SDS011;42545;50.054;8.306;2023-08-21T09:50:49;4.43;;;3.60;;
56670;SDS011;42545;50.054;8.306;2023-08-21T09:53:17;4.05;;;3.67;;
56670;SDS011;42545;50.054;8.306;2023-08-21T09:55:43;4.30;;;3.78;;
56670;SDS011;42545;50.054;8.306;2023-08-21T09:58:12;3.95;;;3.55;;
56670;SDS011;42545;50.054;8.306;2023-08-21T10:00:39;3.80;;;3.50;;
56670;SDS011;42545;50.054;8.306;2023-08-21T10:03:07;4.38;;;3.53;;
56670;SDS011;42545;50.054;8.306;2023-08-21T10:05:36;4.00;;;3.60;;
56670;SDS011;42545;50.054;8.306;2023-08-21T10:08:05;4.30;;;3.90;;
56670;SDS011;42545;50.054;8.306;2023-08-21T10:17:17;4.25;;;3.85;;
56670;SDS011;42545;50.054;8.306;2023-08-21T10:19:50;3.95;;;3.65;;
56670;SDS011;42545;50.054;8.306;2023-08-21T10:22:27;5.15;;;4.65;;
56670;SDS011;42545;50.054;8.306;2023-08-21T10:25:03;4.10;;;3.80;;
56670;SDS011;42545;50.054;8.306;2023-08-21T10:27:40;3.78;;;3.47;;
56670;SDS011;42545;50.054;8.306;2023-08-21T10:30:10;4.00;;;3.58;;
56670;SDS011;42545;50.054;8.306;2023-08-21T10:32:46;3.97;;;3.60;;
56670;SDS011;42545;50.054;8.306;2023-08-21T10:35:17;4.10;;;3.70;;
56670;SDS011;42545;50.054;8.306;2023-08-21T10:40:35;3.60;;;3.30;;
56670;SDS011;42545;50.054;8.306;2023-08-21T10:43:02;3.67;;;3.35;;
56670;SDS011;42545;50.054;8.306;2023-08-21T10:45:31;4.20;;;3.72;;
56670;SDS011;42545;50.054;8.306;2023-08-21T10:47:59;3.25;;;2.95;;
56670;SDS011;42545;50.054;8.306;2023-08-21T10:50:26;3.60;;;3.30;;
56670;SDS011;42545;50.054;8.306;2023-08-21T10:52:54;3.05;;;2.67;;
56670;SDS011;42545;50.054;8.306;2023-08-21T10:55:20;3.13;;;2.83;;
56670;SDS011;42545;50.054;8.306;2023-08-21T10:57:47;3.28;;;2.97;;
56670;SDS011;42545;50.054;8.306;2023-08-21T11:00:15;3.20;;;2.90;;
56670;SDS011;42545;50.054;8.306;2023-08-21T11:02:44;3.70;;;3.35;;
56670;SDS011;42545;50.054;8.306;2023-08-21T11:05:13;3.10;;;2.80;;
56670;SDS011;42545;50.054;8.306;2023-08-21T11:07:42;3.10;;;2.80;;
56670;SDS011;42545;50.054;8.306;2023-08-21T11:10:11;2.88;;;2.67;;
56670;SDS011;42545;50.054;8.306;2023-08-21T11:12:47;3.20;;;2.90;;
56670;SDS011;42545;50.054;8.306;2023-08-21T11:15:15;5.38;;;3.38;;
56670;SDS011;42545;50.054;8.306;2023-08-21T11:17:50;2.70;;;2.50;;
56670;SDS011;42545;50.054;8.306;2023-08-21T11:20:19;3.17;;;2.88;;
56670;SDS011;42545;50.054;8.306;2023-08-21T11:22:45;3.47;;;3.17;;
56670;SDS011;42545;50.054;8.306;2023-08-21T11:25:14;2.90;;;2.70;;
56670;SDS011;42545;50.054;8.306;2023-08-21T11:27:41;3.13;;;2.83;;
56670;SDS011;42545;50.054;8.306;2023-08-21T11:30:10;3.70;;;3.38;;
56670;SDS011;42545;50.054;8.306;2023-08-21T11:32:38;3.28;;;2.97;;
56670;SDS011;42545;50.054;8.306;2023-08-21T11:35:05;2.95;;;2.65;;
56670;SDS011;42545;50.054;8.306;2023-08-21T11:37:33;3.20;;;2.75;;
56670;SDS011;42545;50.054;8.306;2023-08-21T11:40:00;2.90;;;2.70;;
56670;SDS011;42545;50.054;8.306;2023-08-21T11:42:33;2.90;;;2.70;;
56670;SDS011;42545;50.054;8.306;2023-08-21T11:45:01;3.83;;;3.00;;
56670;SDS011;42545;50.054;8.306;2023-08-21T11:47:30;3.67;;;3.13;;
56670;SDS011;42545;50.054;8.306;2023-08-21T11:50:01;3.05;;;2.75;;
56670;SDS011;42545;50.054;8.306;2023-08-21T11:52:29;3.33;;;2.60;;
56670;SDS011;42545;50.054;8.306;2023-08-21T11:54:58;2.90;;;2.55;;
56670;SDS011;42545;50.054;8.306;2023-08-21T11:57:25;2.75;;;2.28;;
56670;SDS011;42545;50.054;8.306;2023-08-21T11:59:53;2.50;;;2.30;;
56670;SDS011;42545;50.054;8.306;2023-08-21T12:02:22;2.75;;;2.50;;
56670;SDS011;42545;50.054;8.306;2023-08-21T12:04:53;2.80;;;2.53;;
56670;SDS011;42545;50.054;8.306;2023-08-21T12:07:21;2.30;;;2.10;;
56670;SDS011;42545;50.054;8.306;2023-08-21T12:09:47;3.38;;;2.53;;
56670;SDS011;42545;50.054;8.306;2023-08-21T12:12:16;3.50;;;3.20;;
56670;SDS011;42545;50.054;8.306;2023-08-21T12:14:42;3.50;;;3.17;;
56670;SDS011;42545;50.054;8.306;2023-08-21T12:17:09;3.15;;;2.85;;
56670;SDS011;42545;50.054;8.306;2023-08-21T12:19:36;3.22;;;2.92;;
56670;SDS011;42545;50.054;8.306;2023-08-21T12:22:03;7.18;;;3.67;;
56670;SDS011;42545;50.054;8.306;2023-08-21T12:24:30;3.67;;;3.22;;
56670;SDS011;42545;50.054;8.306;2023-08-21T12:26:56;2.78;;;2.58;;
56670;SDS011;42545;50.054;8.306;2023-08-21T12:29:24;3.38;;;2.80;;
56670;SDS011;42545;50.054;8.306;2023-08-21T12:31:51;2.70;;;2.50;;
56670;SDS011;42545;50.054;8.306;2023-08-21T12:34:18;2.78;;;2.53;;
56670;SDS011;42545;50.054;8.306;2023-08-21T12:36:45;2.70;;;2.50;;
56670;SDS011;42545;50.054;8.306;2023-08-21T12:39:11;2.50;;;2.30;;
56670;SDS011;42545;50.054;8.306;2023-08-21T12:41:39;2.95;;;2.75;;
56670;SDS011;42545;50.054;8.306;2023-08-21T12:44:05;2.42;;;2.08;;
56670;SDS011;42545;50.054;8.306;2023-08-21T12:46:35;2.63;;;2.00;;
56670;SDS011;42545;50.054;8.306;2023-08-21T12:49:02;2.85;;;2.30;;
56670;SDS011;42545;50.054;8.306;2023-08-21T12:51:29;2.78;;;2.50;;
56670;SDS011;42545;50.054;8.306;2023-08-21T12:53:56;2.63;;;2.42;;
56670;SDS011;42545;50.054;8.306;2023-08-21T12:56:22;2.45;;;2.25;;
56670;SDS011;42545;50.054;8.306;2023-08-21T12:58:49;2.08;;;1.88;;
56670;SDS011;42545;50.054;8.306;2023-08-21T13:01:17;1.90;;;1.80;;
56670;SDS011;42545;50.054;8.306;2023-08-21T13:03:46;2.10;;;1.90;;
56670;SDS011;42545;50.054;8.306;2023-08-21T13:06:13;2.30;;;1.83;;
56670;SDS011;42545;50.054;8.306;2023-08-21T13:08:40;2.15;;;1.90;;
56670;SDS011;42545;50.054;8.306;2023-08-21T13:11:07;1.70;;;1.60;;
56670;SDS011;42545;50.054;8.306;2023-08-21T13:13:35;2.20;;;2.00;;
56670;SDS011;42545;50.054;8.306;2023-08-21T13:16:01;3.47;;;2.38;;
56670;SDS011;42545;50.054;8.306;2023-08-21T13:18:29;2.83;;;1.90;;
56670;SDS011;42545;50.054;8.306;2023-08-21T13:20:57;3.20;;;2.00;;
56670;SDS011;42545;50.054;8.306;2023-08-21T13:23:23;2.08;;;1.90;;
56670;SDS011;42545;50.054;8.306;2023-08-21T13:25:50;2.40;;;1.90;;
56670;SDS011;42545;50.054;8.306;2023-08-21T13:28:17;2.33;;;2.08;;
56670;SDS011;42545;50.054;8.306;2023-08-21T13:30:43;2.00;;;1.80;;
56670;SDS011;42545;50.054;8.306;2023-08-21T13:33:10;1.83;;;1.73;;
56670;SDS011;42545;50.054;8.306;2023-08-21T13:35:36;2.10;;;1.90;;
56670;SDS011;42545;50.054;8.306;2023-08-21T13:38:04;3.50;;;2.33;;
56670;SDS011;42545;50.054;8.306;2023-08-21T13:40:31;2.97;;;2.10;;
56670;SDS011;42545;50.054;8.306;2023-08-21T13:42:58;2.63;;;2.30;;
56670;SDS011;42545;50.054;8.306;2023-08-21T13:45:25;2.30;;;2.10;;
56670;SDS011;42545;50.054;8.306;2023-08-21T13:47:51;2.00;;;1.75;;
56670;SDS011;42545;50.054;8.306;2023-08-21T13:50:18;2.47;;;2.15;;
56670;SDS011;42545;50.054;8.306;2023-08-21T13:52:46;3.53;;;2.40;;
56670;SDS011;42545;50.054;8.306;2023-08-21T13:55:15;2.17;;;1.83;;
56670;SDS011;42545;50.054;8.306;2023-08-21T13:57:42;2.28;;;2.00;;
56670;SDS011;42545;50.054;8.306;2023-08-21T14:00:09;4.85;;;2.17;;
56670;SDS011;42545;50.054;8.306;2023-08-21T14:02:38;1.70;;;1.50;;
56670;SDS011;42545;50.054;8.306;2023-08-21T14:05:06;2.70;;;2.00;;
56670;SDS011;42545;50.054;8.306;2023-08-21T14:07:33;2.20;;;2.00;;
56670;SDS011;42545;50.054;8.306;2023-08-21T14:10:00;2.05;;;1.80;;
56670;SDS011;42545;50.054;8.306;2023-08-21T14:12:29;1.77;;;1.67;;
56670;SDS011;42545;50.054;8.306;2023-08-21T14:14:57;2.73;;;1.90;;
56670;SDS011;42545;50.054;8.306;2023-08-21T14:17:24;2.30;;;2.00;;
56670;SDS011;42545;50.054;8.306;2023-08-21T14:19:51;2.10;;;1.88;;
56670;SDS011;42545;50.054;8.306;2023-08-21T14:22:18;2.10;;;1.90;;
56670;SDS011;42545;50.054;8.306;2023-08-21T14:24:44;3.13;;;2.17;;
56670;SDS011;42545;50.054;8.306;2023-08-21T14:27:11;2.30;;;1.80;;
56670;SDS011;42545;50.054;8.306;2023-08-21T14:29:39;2.58;;;1.98;;
56670;SDS011;42545;50.054;8.306;2023-08-21T14:32:07;2.65;;;2.17;;
56670;SDS011;42545;50.054;8.306;2023-08-21T14:34:34;2.08;;;1.88;;
56670;SDS011;42545;50.054;8.306;2023-08-21T14:37:01;2.58;;;1.90;;
56670;SDS011;42545;50.054;8.306;2023-08-21T14:39:29;4.32;;;2.05;;
56670;SDS011;42545;50.054;8.306;2023-08-21T14:41:56;3.67;;;2.90;;
56670;SDS011;42545;50.054;8.306;2023-08-21T14:44:24;2.80;;;2.40;;
56670;SDS011;42545;50.054;8.306;2023-08-21T14:46:53;2.40;;;2.20;;
56670;SDS011;42545;50.054;8.306;2023-08-21T14:49:20;2.50;;;2.05;;
56670;SDS011;42545;50.054;8.306;2023-08-21T14:51:47;3.17;;;1.98;;
56670;SDS011;42545;50.054;8.306;2023-08-21T14:54:14;1.92;;;1.80;;
56670;SDS011;42545;50.054;8.306;2023-08-21T14:56:41;2.22;;;1.80;;
56670;SDS011;42545;50.054;8.306;2023-08-21T14:59:09;2.03;;;1.80;;
56670;SDS011;42545;50.054;8.306;2023-08-21T15:01:36;2.30;;;1.80;;
56670;SDS011;42545;50.054;8.306;2023-08-21T15:04:04;2.72;;;2.00;;
56670;SDS011;42545;50.054;8.306;2023-08-21T15:06:32;2.85;;;1.80;;